sensor_id;sensor_type;location;lat;lon;timestamp;P1;durP1;ratioP1;P2;durP2;ratioP2
8199;SDS011;4141;47.880;12.340;2022-07-06T00:00:35;6.33;;;3.57;;
8199;SDS011;4141;47.880;12.340;2022-07-06T00:03:04;4.07;;;1.93;;
8199;SDS011;4141;47.880;12.340;2022-07-06T00:05:32;5.03;;;2.03;;
8199;SDS011;4141;47.880;12.340;2022-07-06T00:08:00;2.73;;;2.30;;
8199;SDS011;4141;47.880;12.340;2022-07-06T00:10:28;6.63;;;2.50;;
8199;SDS011;4141;47.880;12.340;2022-07-06T00:12:56;5.97;;;3.07;;
8199;SDS011;4141;47.880;12.340;2022-07-06T00:15:24;2.67;;;2.30;;
8199;SDS011;4141;47.880;12.340;2022-07-06T00:17:52;4.50;;;2.70;;
8199;SDS011;4141;47.880;12.340;2022-07-06T00:20:22;5.53;;;2.40;;
8199;SDS011;4141;47.880;12.340;2022-07-06T00:22:50;7.10;;;2.50;;
8199;SDS011;4141;47.880;12.340;2022-07-06T00:25:18;3.10;;;2.17;;
8199;SDS011;4141;47.880;12.340;2022-07-06T00:27:46;4.53;;;2.33;;
8199;SDS011;4141;47.880;12.340;2022-07-06T00:30:14;7.43;;;2.20;;
8199;SDS011;4141;47.880;12.340;2022-07-06T00:32:41;2.90;;;1.80;;
8199;SDS011;4141;47.880;12.340;2022-07-06T00:35:09;3.83;;;2.17;;
8199;SDS011;4141;47.880;12.340;2022-07-06T00:37:39;8.37;;;1.97;;
8199;SDS011;4141;47.880;12.340;2022-07-06T00:40:07;4.33;;;1.90;;
8199;SDS011;4141;47.880;12.340;2022-07-06T00:42:39;3.80;;;2.40;;
8199;SDS011;4141;47.880;12.340;2022-07-06T00:45:08;3.70;;;1.90;;
8199;SDS011;4141;47.880;12.340;2022-07-06T00:47:36;3.13;;;2.27;;
8199;SDS011;4141;47.880;12.340;2022-07-06T00:50:04;2.63;;;2.40;;
8199;SDS011;4141;47.880;12.340;2022-07-06T00:52:43;3.03;;;2.03;;
8199;SDS011;4141;47.880;12.340;2022-07-06T00:55:12;2.90;;;2.07;;
8199;SDS011;4141;47.880;12.340;2022-07-06T00:57:40;3.20;;;1.80;;
8199;SDS011;4141;47.880;12.340;2022-07-06T01:00:09;3.30;;;1.67;;
8199;SDS011;4141;47.880;12.340;2022-07-06T01:02:38;2.70;;;2.17;;
8199;SDS011;4141;47.880;12.340;2022-07-06T01:05:06;3.97;;;1.63;;
8199;SDS011;4141;47.880;12.340;2022-07-06T01:07:35;2.67;;;1.90;;
8199;SDS011;4141;47.880;12.340;2022-07-06T01:10:05;3.07;;;1.53;;
8199;SDS011;4141;47.880;12.340;2022-07-06T01:12:34;2.90;;;1.73;;
8199;SDS011;4141;47.880;12.340;2022-07-06T01:15:02;2.60;;;1.60;;
8199;SDS011;4141;47.880;12.340;2022-07-06T01:17:31;3.83;;;2.40;;
8199;SDS011;4141;47.880;12.340;2022-07-06T01:20:06;10.60;;;1.77;;
8199;SDS011;4141;47.880;12.340;2022-07-06T01:22:34;2.97;;;2.23;;
8199;SDS011;4141;47.880;12.340;2022-07-06T01:25:03;2.27;;;1.47;;
8199;SDS011;4141;47.880;12.340;2022-07-06T01:27:31;4.73;;;1.80;;
8199;SDS011;4141;47.880;12.340;2022-07-06T01:30:00;3.93;;;2.00;;
8199;SDS011;4141;47.880;12.340;2022-07-06T01:32:29;2.20;;;1.67;;
8199;SDS011;4141;47.880;12.340;2022-07-06T01:34:56;3.47;;;2.27;;
8199;SDS011;4141;47.880;12.340;2022-07-06T01:37:26;4.33;;;1.70;;
8199;SDS011;4141;47.880;12.340;2022-07-06T01:39:57;2.80;;;1.87;;
8199;SDS011;4141;47.880;12.340;2022-07-06T01:42:25;3.23;;;1.70;;
8199;SDS011;4141;47.880;12.340;2022-07-06T01:44:53;2.37;;;1.50;;
8199;SDS011;4141;47.880;12.340;2022-07-06T01:47:24;2.67;;;2.03;;
8199;SDS011;4141;47.880;12.340;2022-07-06T01:49:52;2.30;;;2.03;;
8199;SDS011;4141;47.880;12.340;2022-07-06T01:52:20;2.00;;;1.80;;
8199;SDS011;4141;47.880;12.340;2022-07-06T01:54:49;11.00;;;2.30;;
8199;SDS011;4141;47.880;12.340;2022-07-06T01:57:17;4.03;;;2.20;;
8199;SDS011;4141;47.880;12.340;2022-07-06T01:59:45;2.23;;;1.70;;
8199;SDS011;4141;47.880;12.340;2022-07-06T02:02:15;3.70;;;1.90;;
8199;SDS011;4141;47.880;12.340;2022-07-06T02:04:44;3.00;;;2.10;;
8199;SDS011;4141;47.880;12.340;2022-07-06T02:07:12;2.03;;;1.60;;
8199;SDS011;4141;47.880;12.340;2022-07-06T02:09:40;2.43;;;2.23;;
8199;SDS011;4141;47.880;12.340;2022-07-06T02:12:09;6.90;;;2.60;;
8199;SDS011;4141;47.880;12.340;2022-07-06T02:14:37;2.83;;;1.90;;
8199;SDS011;4141;47.880;12.340;2022-07-06T02:17:05;4.60;;;2.13;;
8199;SDS011;4141;47.880;12.340;2022-07-06T02:19:33;3.47;;;2.53;;
8199;SDS011;4141;47.880;12.340;2022-07-06T02:22:01;2.90;;;2.20;;
8199;SDS011;4141;47.880;12.340;2022-07-06T02:24:29;4.33;;;2.27;;
8199;SDS011;4141;47.880;12.340;2022-07-06T02:26:58;2.37;;;2.17;;
8199;SDS011;4141;47.880;12.340;2022-07-06T02:29:27;3.17;;;2.20;;
8199;SDS011;4141;47.880;12.340;2022-07-06T02:31:55;3.73;;;2.73;;
8199;SDS011;4141;47.880;12.340;2022-07-06T02:34:23;3.73;;;2.20;;
8199;SDS011;4141;47.880;12.340;2022-07-06T02:36:51;2.23;;;2.00;;
8199;SDS011;4141;47.880;12.340;2022-07-06T02:39:19;4.03;;;2.03;;
8199;SDS011;4141;47.880;12.340;2022-07-06T02:41:47;2.60;;;2.23;;
8199;SDS011;4141;47.880;12.340;2022-07-06T02:44:15;6.87;;;2.90;;
8199;SDS011;4141;47.880;12.340;2022-07-06T02:46:44;7.30;;;2.40;;
8199;SDS011;4141;47.880;12.340;2022-07-06T02:49:12;4.20;;;2.63;;
8199;SDS011;4141;47.880;12.340;2022-07-06T02:51:41;3.43;;;2.33;;
8199;SDS011;4141;47.880;12.340;2022-07-06T02:54:09;5.43;;;3.10;;
8199;SDS011;4141;47.880;12.340;2022-07-06T02:56:37;12.07;;;3.30;;
8199;SDS011;4141;47.880;12.340;2022-07-06T02:59:05;7.07;;;2.70;;
8199;SDS011;4141;47.880;12.340;2022-07-06T03:01:39;14.10;;;3.30;;
8199;SDS011;4141;47.880;12.340;2022-07-06T03:04:09;6.10;;;2.53;;
8199;SDS011;4141;47.880;12.340;2022-07-06T03:06:37;7.23;;;3.20;;
8199;SDS011;4141;47.880;12.340;2022-07-06T03:09:05;6.50;;;3.00;;
8199;SDS011;4141;47.880;12.340;2022-07-06T03:11:32;10.70;;;2.83;;
8199;SDS011;4141;47.880;12.340;2022-07-06T03:14:02;4.77;;;3.00;;
8199;SDS011;4141;47.880;12.340;2022-07-06T03:16:30;5.70;;;2.83;;
8199;SDS011;4141;47.880;12.340;2022-07-06T03:18:59;9.00;;;3.13;;
8199;SDS011;4141;47.880;12.340;2022-07-06T03:21:28;5.13;;;3.23;;
8199;SDS011;4141;47.880;12.340;2022-07-06T03:23:56;9.50;;;2.93;;
8199;SDS011;4141;47.880;12.340;2022-07-06T03:26:24;6.40;;;2.63;;
8199;SDS011;4141;47.880;12.340;2022-07-06T03:28:52;13.10;;;4.53;;
8199;SDS011;4141;47.880;12.340;2022-07-06T03:31:20;7.00;;;3.50;;
8199;SDS011;4141;47.880;12.340;2022-07-06T03:33:48;8.37;;;3.10;;
8199;SDS011;4141;47.880;12.340;2022-07-06T03:36:17;13.10;;;4.13;;
8199;SDS011;4141;47.880;12.340;2022-07-06T03:38:46;7.37;;;2.90;;
8199;SDS011;4141;47.880;12.340;2022-07-06T03:41:14;3.40;;;2.27;;
8199;SDS011;4141;47.880;12.340;2022-07-06T03:43:42;4.97;;;2.80;;
8199;SDS011;4141;47.880;12.340;2022-07-06T03:46:10;7.60;;;2.67;;
8199;SDS011;4141;47.880;12.340;2022-07-06T03:48:39;10.03;;;2.77;;
8199;SDS011;4141;47.880;12.340;2022-07-06T03:51:07;5.90;;;2.60;;
8199;SDS011;4141;47.880;12.340;2022-07-06T03:53:37;5.27;;;2.63;;
8199;SDS011;4141;47.880;12.340;2022-07-06T03:56:06;5.83;;;3.00;;
8199;SDS011;4141;47.880;12.340;2022-07-06T03:58:51;5.30;;;3.10;;
8199;SDS011;4141;47.880;12.340;2022-07-06T04:01:19;3.80;;;2.90;;
8199;SDS011;4141;47.880;12.340;2022-07-06T04:03:48;5.60;;;3.17;;
8199;SDS011;4141;47.880;12.340;2022-07-06T04:06:16;4.60;;;3.30;;
8199;SDS011;4141;47.880;12.340;2022-07-06T04:08:44;5.03;;;3.07;;
8199;SDS011;4141;47.880;12.340;2022-07-06T04:11:13;6.20;;;3.20;;
8199;SDS011;4141;47.880;12.340;2022-07-06T04:13:41;4.90;;;3.10;;
8199;SDS011;4141;47.880;12.340;2022-07-06T04:16:10;9.80;;;3.10;;
8199;SDS011;4141;47.880;12.340;2022-07-06T04:18:38;4.20;;;3.50;;
8199;SDS011;4141;47.880;12.340;2022-07-06T04:21:06;4.80;;;3.27;;
8199;SDS011;4141;47.880;12.340;2022-07-06T04:23:34;5.53;;;2.80;;
8199;SDS011;4141;47.880;12.340;2022-07-06T04:26:03;7.50;;;3.30;;
8199;SDS011;4141;47.880;12.340;2022-07-06T04:28:32;7.70;;;2.73;;
8199;SDS011;4141;47.880;12.340;2022-07-06T04:31:00;3.70;;;2.77;;
8199;SDS011;4141;47.880;12.340;2022-07-06T04:33:29;4.60;;;2.67;;
8199;SDS011;4141;47.880;12.340;2022-07-06T04:35:57;10.63;;;2.53;;
8199;SDS011;4141;47.880;12.340;2022-07-06T04:38:25;6.70;;;2.97;;
8199;SDS011;4141;47.880;12.340;2022-07-06T04:40:53;6.53;;;2.60;;
8199;SDS011;4141;47.880;12.340;2022-07-06T04:43:21;32.63;;;3.23;;
8199;SDS011;4141;47.880;12.340;2022-07-06T04:45:51;6.13;;;2.50;;
8199;SDS011;4141;47.880;12.340;2022-07-06T04:48:19;7.10;;;2.90;;
8199;SDS011;4141;47.880;12.340;2022-07-06T04:50:47;3.90;;;2.30;;
8199;SDS011;4141;47.880;12.340;2022-07-06T04:53:15;6.93;;;2.60;;
8199;SDS011;4141;47.880;12.340;2022-07-06T04:55:43;4.17;;;2.13;;
8199;SDS011;4141;47.880;12.340;2022-07-06T04:58:11;15.90;;;3.00;;
8199;SDS011;4141;47.880;12.340;2022-07-06T05:00:39;27.33;;;3.50;;
8199;SDS011;4141;47.880;12.340;2022-07-06T05:03:08;6.80;;;2.53;;
8199;SDS011;4141;47.880;12.340;2022-07-06T05:05:36;10.50;;;3.50;;
8199;SDS011;4141;47.880;12.340;2022-07-06T05:08:04;3.97;;;3.00;;
8199;SDS011;4141;47.880;12.340;2022-07-06T05:10:33;4.87;;;2.77;;
8199;SDS011;4141;47.880;12.340;2022-07-06T05:13:01;5.33;;;2.87;;
8199;SDS011;4141;47.880;12.340;2022-07-06T05:15:29;10.63;;;3.40;;
8199;SDS011;4141;47.880;12.340;2022-07-06T05:17:57;4.50;;;2.70;;
8199;SDS011;4141;47.880;12.340;2022-07-06T05:20:27;4.00;;;2.47;;
8199;SDS011;4141;47.880;12.340;2022-07-06T05:22:55;6.07;;;1.93;;
8199;SDS011;4141;47.880;12.340;2022-07-06T05:25:22;3.03;;;2.20;;
8199;SDS011;4141;47.880;12.340;2022-07-06T05:27:50;4.33;;;2.30;;
8199;SDS011;4141;47.880;12.340;2022-07-06T05:30:18;8.23;;;2.00;;
8199;SDS011;4141;47.880;12.340;2022-07-06T05:32:46;5.70;;;2.43;;
8199;SDS011;4141;47.880;12.340;2022-07-06T05:35:14;6.43;;;2.07;;
8199;SDS011;4141;47.880;12.340;2022-07-06T05:38:04;7.30;;;2.37;;
8199;SDS011;4141;47.880;12.340;2022-07-06T05:40:32;3.63;;;2.90;;
8199;SDS011;4141;47.880;12.340;2022-07-06T05:43:00;4.57;;;2.93;;
8199;SDS011;4141;47.880;12.340;2022-07-06T05:45:28;4.57;;;3.40;;
8199;SDS011;4141;47.880;12.340;2022-07-06T05:47:56;4.03;;;3.63;;
8199;SDS011;4141;47.880;12.340;2022-07-06T05:50:42;4.27;;;2.80;;
8199;SDS011;4141;47.880;12.340;2022-07-06T05:53:11;3.47;;;2.90;;
8199;SDS011;4141;47.880;12.340;2022-07-06T05:55:45;5.70;;;2.90;;
8199;SDS011;4141;47.880;12.340;2022-07-06T05:58:13;4.00;;;3.00;;
8199;SDS011;4141;47.880;12.340;2022-07-06T06:00:41;5.63;;;3.10;;
8199;SDS011;4141;47.880;12.340;2022-07-06T06:03:09;8.83;;;2.90;;
8199;SDS011;4141;47.880;12.340;2022-07-06T06:05:37;3.97;;;2.67;;
8199;SDS011;4141;47.880;12.340;2022-07-06T06:08:05;5.40;;;3.23;;
8199;SDS011;4141;47.880;12.340;2022-07-06T06:10:35;5.17;;;3.37;;
8199;SDS011;4141;47.880;12.340;2022-07-06T06:13:03;6.23;;;3.43;;
8199;SDS011;4141;47.880;12.340;2022-07-06T06:15:31;11.87;;;3.77;;
8199;SDS011;4141;47.880;12.340;2022-07-06T06:17:59;9.23;;;2.37;;
8199;SDS011;4141;47.880;12.340;2022-07-06T06:20:27;8.07;;;2.60;;
8199;SDS011;4141;47.880;12.340;2022-07-06T06:22:56;6.17;;;2.73;;
8199;SDS011;4141;47.880;12.340;2022-07-06T06:25:27;3.77;;;2.87;;
8199;SDS011;4141;47.880;12.340;2022-07-06T06:27:56;3.87;;;2.53;;
8199;SDS011;4141;47.880;12.340;2022-07-06T06:30:25;8.23;;;3.10;;
8199;SDS011;4141;47.880;12.340;2022-07-06T06:33:04;5.90;;;2.70;;
8199;SDS011;4141;47.880;12.340;2022-07-06T06:35:32;4.40;;;2.93;;
8199;SDS011;4141;47.880;12.340;2022-07-06T06:38:00;3.37;;;2.80;;
8199;SDS011;4141;47.880;12.340;2022-07-06T06:40:28;3.30;;;2.70;;
8199;SDS011;4141;47.880;12.340;2022-07-06T06:42:58;3.70;;;2.13;;
8199;SDS011;4141;47.880;12.340;2022-07-06T06:45:26;2.93;;;1.63;;
8199;SDS011;4141;47.880;12.340;2022-07-06T06:47:54;7.17;;;1.93;;
8199;SDS011;4141;47.880;12.340;2022-07-06T06:50:22;4.00;;;1.97;;
8199;SDS011;4141;47.880;12.340;2022-07-06T06:52:50;4.10;;;1.60;;
8199;SDS011;4141;47.880;12.340;2022-07-06T06:55:18;2.97;;;1.33;;
8199;SDS011;4141;47.880;12.340;2022-07-06T06:57:46;3.57;;;2.30;;
8199;SDS011;4141;47.880;12.340;2022-07-06T07:00:16;5.13;;;2.20;;
8199;SDS011;4141;47.880;12.340;2022-07-06T07:02:44;2.10;;;1.70;;
8199;SDS011;4141;47.880;12.340;2022-07-06T07:05:13;3.03;;;1.83;;
8199;SDS011;4141;47.880;12.340;2022-07-06T07:07:42;1.83;;;1.57;;
8199;SDS011;4141;47.880;12.340;2022-07-06T07:10:10;10.13;;;1.30;;
8199;SDS011;4141;47.880;12.340;2022-07-06T07:12:42;3.60;;;1.60;;
8199;SDS011;4141;47.880;12.340;2022-07-06T07:15:11;2.00;;;1.30;;
8199;SDS011;4141;47.880;12.340;2022-07-06T07:17:40;2.30;;;1.37;;
8199;SDS011;4141;47.880;12.340;2022-07-06T07:20:09;1.80;;;1.10;;
8199;SDS011;4141;47.880;12.340;2022-07-06T07:22:37;6.77;;;1.30;;
8199;SDS011;4141;47.880;12.340;2022-07-06T07:25:06;2.40;;;1.37;;
8199;SDS011;4141;47.880;12.340;2022-07-06T07:27:34;2.50;;;1.80;;
8199;SDS011;4141;47.880;12.340;2022-07-06T07:30:02;5.03;;;1.30;;
8199;SDS011;4141;47.880;12.340;2022-07-06T07:32:30;2.70;;;1.70;;
8199;SDS011;4141;47.880;12.340;2022-07-06T07:34:59;2.00;;;1.73;;
8199;SDS011;4141;47.880;12.340;2022-07-06T07:37:28;2.27;;;1.43;;
8199;SDS011;4141;47.880;12.340;2022-07-06T07:39:56;6.80;;;1.97;;
8199;SDS011;4141;47.880;12.340;2022-07-06T07:42:24;1.57;;;1.20;;
8199;SDS011;4141;47.880;12.340;2022-07-06T07:44:52;6.50;;;2.23;;
8199;SDS011;4141;47.880;12.340;2022-07-06T07:47:20;2.60;;;1.77;;
8199;SDS011;4141;47.880;12.340;2022-07-06T07:49:48;3.23;;;1.80;;
8199;SDS011;4141;47.880;12.340;2022-07-06T07:52:17;11.83;;;1.80;;
8199;SDS011;4141;47.880;12.340;2022-07-06T07:54:45;5.17;;;1.70;;
8199;SDS011;4141;47.880;12.340;2022-07-06T07:57:33;2.20;;;1.70;;
8199;SDS011;4141;47.880;12.340;2022-07-06T08:00:01;3.00;;;1.80;;
8199;SDS011;4141;47.880;12.340;2022-07-06T08:02:29;4.10;;;1.30;;
8199;SDS011;4141;47.880;12.340;2022-07-06T08:04:57;2.07;;;1.20;;
8199;SDS011;4141;47.880;12.340;2022-07-06T08:07:27;3.90;;;1.60;;
8199;SDS011;4141;47.880;12.340;2022-07-06T08:09:55;2.80;;;1.60;;
8199;SDS011;4141;47.880;12.340;2022-07-06T08:12:23;5.03;;;1.80;;
8199;SDS011;4141;47.880;12.340;2022-07-06T08:14:51;1.93;;;1.53;;
8199;SDS011;4141;47.880;12.340;2022-07-06T08:17:19;4.60;;;1.90;;
8199;SDS011;4141;47.880;12.340;2022-07-06T08:19:47;1.60;;;1.33;;
8199;SDS011;4141;47.880;12.340;2022-07-06T08:22:14;3.73;;;1.77;;
8199;SDS011;4141;47.880;12.340;2022-07-06T08:24:44;11.03;;;1.93;;
8199;SDS011;4141;47.880;12.340;2022-07-06T08:27:12;4.90;;;2.10;;
8199;SDS011;4141;47.880;12.340;2022-07-06T08:29:40;2.60;;;1.33;;
8199;SDS011;4141;47.880;12.340;2022-07-06T08:32:08;4.40;;;1.60;;
8199;SDS011;4141;47.880;12.340;2022-07-06T08:34:45;1.97;;;1.53;;
8199;SDS011;4141;47.880;12.340;2022-07-06T08:37:13;8.37;;;1.80;;
8199;SDS011;4141;47.880;12.340;2022-07-06T08:39:41;2.10;;;1.30;;
8199;SDS011;4141;47.880;12.340;2022-07-06T08:42:11;3.30;;;1.50;;
8199;SDS011;4141;47.880;12.340;2022-07-06T08:44:39;2.77;;;1.47;;
8199;SDS011;4141;47.880;12.340;2022-07-06T08:47:08;7.43;;;1.83;;
8199;SDS011;4141;47.880;12.340;2022-07-06T08:49:37;4.20;;;1.57;;
8199;SDS011;4141;47.880;12.340;2022-07-06T08:52:06;6.53;;;1.50;;
8199;SDS011;4141;47.880;12.340;2022-07-06T08:54:35;2.17;;;1.53;;
8199;SDS011;4141;47.880;12.340;2022-07-06T08:57:03;3.37;;;1.43;;
8199;SDS011;4141;47.880;12.340;2022-07-06T08:59:33;6.43;;;1.60;;
8199;SDS011;4141;47.880;12.340;2022-07-06T09:02:02;2.50;;;1.80;;
8199;SDS011;4141;47.880;12.340;2022-07-06T09:04:31;7.30;;;1.77;;
8199;SDS011;4141;47.880;12.340;2022-07-06T09:07:00;3.17;;;1.60;;
8199;SDS011;4141;47.880;12.340;2022-07-06T09:09:28;3.10;;;1.80;;
8199;SDS011;4141;47.880;12.340;2022-07-06T09:11:57;1.50;;;1.30;;
8199;SDS011;4141;47.880;12.340;2022-07-06T09:14:29;2.00;;;1.40;;
8199;SDS011;4141;47.880;12.340;2022-07-06T09:17:02;2.93;;;1.57;;
8199;SDS011;4141;47.880;12.340;2022-07-06T09:19:31;1.20;;;1.00;;
8199;SDS011;4141;47.880;12.340;2022-07-06T09:21:59;2.53;;;1.30;;
8199;SDS011;4141;47.880;12.340;2022-07-06T09:24:27;4.07;;;1.20;;
8199;SDS011;4141;47.880;12.340;2022-07-06T09:26:56;2.07;;;1.10;;
8199;SDS011;4141;47.880;12.340;2022-07-06T09:29:26;1.87;;;1.10;;
8199;SDS011;4141;47.880;12.340;2022-07-06T09:31:57;1.97;;;1.30;;
8199;SDS011;4141;47.880;12.340;2022-07-06T09:34:41;6.17;;;1.17;;
8199;SDS011;4141;47.880;12.340;2022-07-06T09:37:10;2.87;;;1.50;;
8199;SDS011;4141;47.880;12.340;2022-07-06T09:39:38;6.07;;;1.90;;
8199;SDS011;4141;47.880;12.340;2022-07-06T09:42:06;6.43;;;1.80;;
8199;SDS011;4141;47.880;12.340;2022-07-06T09:44:35;5.50;;;1.33;;
8199;SDS011;4141;47.880;12.340;2022-07-06T09:47:04;2.20;;;1.13;;
8199;SDS011;4141;47.880;12.340;2022-07-06T09:49:33;4.30;;;1.50;;
8199;SDS011;4141;47.880;12.340;2022-07-06T09:52:03;3.90;;;1.33;;
8199;SDS011;4141;47.880;12.340;2022-07-06T09:54:32;8.07;;;1.87;;
8199;SDS011;4141;47.880;12.340;2022-07-06T09:57:01;7.67;;;1.97;;
8199;SDS011;4141;47.880;12.340;2022-07-06T09:59:34;5.23;;;1.60;;
8199;SDS011;4141;47.880;12.340;2022-07-06T10:02:03;3.50;;;1.27;;
8199;SDS011;4141;47.880;12.340;2022-07-06T10:04:31;2.43;;;1.47;;
8199;SDS011;4141;47.880;12.340;2022-07-06T10:07:02;4.03;;;1.27;;
8199;SDS011;4141;47.880;12.340;2022-07-06T10:09:30;5.60;;;1.40;;
8199;SDS011;4141;47.880;12.340;2022-07-06T10:11:58;4.13;;;1.30;;
8199;SDS011;4141;47.880;12.340;2022-07-06T10:14:28;1.80;;;1.20;;
8199;SDS011;4141;47.880;12.340;2022-07-06T10:16:57;3.37;;;1.17;;
8199;SDS011;4141;47.880;12.340;2022-07-06T10:19:26;2.20;;;1.30;;
8199;SDS011;4141;47.880;12.340;2022-07-06T10:21:54;3.17;;;1.57;;
8199;SDS011;4141;47.880;12.340;2022-07-06T10:24:25;4.00;;;1.50;;
8199;SDS011;4141;47.880;12.340;2022-07-06T10:26:55;6.97;;;1.80;;
8199;SDS011;4141;47.880;12.340;2022-07-06T10:29:23;2.13;;;1.40;;
8199;SDS011;4141;47.880;12.340;2022-07-06T10:31:52;2.60;;;1.23;;
8199;SDS011;4141;47.880;12.340;2022-07-06T10:34:21;4.00;;;1.60;;
8199;SDS011;4141;47.880;12.340;2022-07-06T10:36:50;2.70;;;1.47;;
8199;SDS011;4141;47.880;12.340;2022-07-06T10:39:33;3.83;;;1.47;;
8199;SDS011;4141;47.880;12.340;2022-07-06T10:45:05;4.80;;;1.30;;
8199;SDS011;4141;47.880;12.340;2022-07-06T10:47:33;2.50;;;1.30;;
8199;SDS011;4141;47.880;12.340;2022-07-06T10:50:02;1.50;;;1.20;;
8199;SDS011;4141;47.880;12.340;2022-07-06T10:52:47;2.87;;;1.43;;
8199;SDS011;4141;47.880;12.340;2022-07-06T10:55:30;2.83;;;1.30;;
8199;SDS011;4141;47.880;12.340;2022-07-06T10:57:58;3.90;;;1.40;;
8199;SDS011;4141;47.880;12.340;2022-07-06T11:00:39;7.43;;;1.43;;
8199;SDS011;4141;47.880;12.340;2022-07-06T11:05:57;2.00;;;1.37;;
8199;SDS011;4141;47.880;12.340;2022-07-06T11:11:20;2.90;;;1.70;;
8199;SDS011;4141;47.880;12.340;2022-07-06T11:13:49;5.83;;;1.83;;
8199;SDS011;4141;47.880;12.340;2022-07-06T11:16:17;4.93;;;2.00;;
8199;SDS011;4141;47.880;12.340;2022-07-06T11:18:46;2.13;;;1.27;;
8199;SDS011;4141;47.880;12.340;2022-07-06T11:21:15;3.87;;;1.23;;
8199;SDS011;4141;47.880;12.340;2022-07-06T11:23:44;3.07;;;1.23;;
8199;SDS011;4141;47.880;12.340;2022-07-06T11:26:13;2.37;;;1.20;;
8199;SDS011;4141;47.880;12.340;2022-07-06T11:28:42;2.50;;;1.30;;
8199;SDS011;4141;47.880;12.340;2022-07-06T11:31:12;2.53;;;1.17;;
8199;SDS011;4141;47.880;12.340;2022-07-06T11:33:41;3.50;;;1.60;;
8199;SDS011;4141;47.880;12.340;2022-07-06T11:36:30;3.13;;;1.43;;
8199;SDS011;4141;47.880;12.340;2022-07-06T11:39:08;2.60;;;1.37;;
8199;SDS011;4141;47.880;12.340;2022-07-06T11:41:36;3.37;;;1.70;;
8199;SDS011;4141;47.880;12.340;2022-07-06T11:44:04;6.67;;;1.47;;
8199;SDS011;4141;47.880;12.340;2022-07-06T11:46:33;11.67;;;1.53;;
8199;SDS011;4141;47.880;12.340;2022-07-06T11:49:02;3.60;;;1.13;;
8199;SDS011;4141;47.880;12.340;2022-07-06T11:51:32;6.63;;;1.77;;
8199;SDS011;4141;47.880;12.340;2022-07-06T11:54:00;3.30;;;1.40;;
8199;SDS011;4141;47.880;12.340;2022-07-06T11:56:28;4.70;;;1.77;;
8199;SDS011;4141;47.880;12.340;2022-07-06T11:58:57;3.50;;;1.33;;
8199;SDS011;4141;47.880;12.340;2022-07-06T12:01:26;1.87;;;1.23;;
8199;SDS011;4141;47.880;12.340;2022-07-06T12:03:56;2.60;;;1.37;;
8199;SDS011;4141;47.880;12.340;2022-07-06T12:06:25;2.37;;;1.30;;
8199;SDS011;4141;47.880;12.340;2022-07-06T12:08:55;4.90;;;1.70;;
8199;SDS011;4141;47.880;12.340;2022-07-06T12:11:25;3.90;;;1.33;;
8199;SDS011;4141;47.880;12.340;2022-07-06T12:13:53;4.20;;;1.33;;
8199;SDS011;4141;47.880;12.340;2022-07-06T12:16:27;2.80;;;1.30;;
8199;SDS011;4141;47.880;12.340;2022-07-06T12:18:56;2.00;;;0.90;;
8199;SDS011;4141;47.880;12.340;2022-07-06T12:21:30;3.10;;;1.40;;
8199;SDS011;4141;47.880;12.340;2022-07-06T12:24:00;5.93;;;1.37;;
8199;SDS011;4141;47.880;12.340;2022-07-06T12:26:28;3.73;;;1.40;;
8199;SDS011;4141;47.880;12.340;2022-07-06T12:29:06;4.47;;;1.90;;
8199;SDS011;4141;47.880;12.340;2022-07-06T12:31:36;2.07;;;1.57;;
8199;SDS011;4141;47.880;12.340;2022-07-06T12:34:04;3.80;;;1.60;;
8199;SDS011;4141;47.880;12.340;2022-07-06T12:36:41;4.87;;;1.77;;
8199;SDS011;4141;47.880;12.340;2022-07-06T12:39:11;6.30;;;1.80;;
8199;SDS011;4141;47.880;12.340;2022-07-06T12:41:43;2.67;;;1.20;;
8199;SDS011;4141;47.880;12.340;2022-07-06T12:44:11;4.90;;;1.73;;
8199;SDS011;4141;47.880;12.340;2022-07-06T12:46:40;10.03;;;2.03;;
8199;SDS011;4141;47.880;12.340;2022-07-06T12:49:15;3.93;;;1.50;;
8199;SDS011;4141;47.880;12.340;2022-07-06T12:51:54;2.60;;;1.40;;
8199;SDS011;4141;47.880;12.340;2022-07-06T12:54:24;4.80;;;1.83;;
8199;SDS011;4141;47.880;12.340;2022-07-06T12:57:00;3.77;;;1.40;;
8199;SDS011;4141;47.880;12.340;2022-07-06T12:59:28;3.47;;;1.70;;
8199;SDS011;4141;47.880;12.340;2022-07-06T13:01:56;7.07;;;1.80;;
8199;SDS011;4141;47.880;12.340;2022-07-06T13:04:25;6.60;;;1.80;;
8199;SDS011;4141;47.880;12.340;2022-07-06T13:06:53;3.70;;;1.40;;
8199;SDS011;4141;47.880;12.340;2022-07-06T13:09:22;15.03;;;1.50;;
8199;SDS011;4141;47.880;12.340;2022-07-06T13:11:51;7.30;;;1.57;;
8199;SDS011;4141;47.880;12.340;2022-07-06T13:14:19;2.70;;;1.30;;
8199;SDS011;4141;47.880;12.340;2022-07-06T13:16:47;5.03;;;2.03;;
8199;SDS011;4141;47.880;12.340;2022-07-06T13:19:15;4.67;;;1.43;;
8199;SDS011;4141;47.880;12.340;2022-07-06T13:21:43;2.77;;;1.30;;
8199;SDS011;4141;47.880;12.340;2022-07-06T13:24:12;1.87;;;1.20;;
8199;SDS011;4141;47.880;12.340;2022-07-06T13:26:40;2.70;;;1.27;;
8199;SDS011;4141;47.880;12.340;2022-07-06T13:29:10;5.00;;;1.67;;
8199;SDS011;4141;47.880;12.340;2022-07-06T13:31:38;2.33;;;1.53;;
8199;SDS011;4141;47.880;12.340;2022-07-06T13:34:07;4.30;;;1.77;;
8199;SDS011;4141;47.880;12.340;2022-07-06T13:36:36;1.93;;;1.27;;
8199;SDS011;4141;47.880;12.340;2022-07-06T13:39:06;2.60;;;1.80;;
8199;SDS011;4141;47.880;12.340;2022-07-06T13:41:34;4.70;;;1.70;;
8199;SDS011;4141;47.880;12.340;2022-07-06T13:44:02;20.43;;;1.57;;
8199;SDS011;4141;47.880;12.340;2022-07-06T13:46:38;3.60;;;1.60;;
8199;SDS011;4141;47.880;12.340;2022-07-06T13:49:06;2.73;;;1.60;;
8199;SDS011;4141;47.880;12.340;2022-07-06T13:51:34;3.90;;;1.30;;
8199;SDS011;4141;47.880;12.340;2022-07-06T13:54:03;2.33;;;1.20;;
8199;SDS011;4141;47.880;12.340;2022-07-06T13:56:31;7.43;;;2.03;;
8199;SDS011;4141;47.880;12.340;2022-07-06T13:58:59;5.00;;;1.80;;
8199;SDS011;4141;47.880;12.340;2022-07-06T14:01:27;5.73;;;2.20;;
8199;SDS011;4141;47.880;12.340;2022-07-06T14:03:58;3.73;;;1.30;;
8199;SDS011;4141;47.880;12.340;2022-07-06T14:06:25;2.57;;;1.77;;
8199;SDS011;4141;47.880;12.340;2022-07-06T14:08:54;3.30;;;1.10;;
8199;SDS011;4141;47.880;12.340;2022-07-06T14:11:21;2.70;;;1.47;;
8199;SDS011;4141;47.880;12.340;2022-07-06T14:13:49;2.23;;;1.40;;
8199;SDS011;4141;47.880;12.340;2022-07-06T14:16:17;4.53;;;1.63;;
8199;SDS011;4141;47.880;12.340;2022-07-06T14:18:45;2.80;;;1.50;;
8199;SDS011;4141;47.880;12.340;2022-07-06T14:21:15;3.13;;;1.63;;
8199;SDS011;4141;47.880;12.340;2022-07-06T14:23:43;2.07;;;1.57;;
8199;SDS011;4141;47.880;12.340;2022-07-06T14:26:13;2.80;;;1.37;;
8199;SDS011;4141;47.880;12.340;2022-07-06T14:28:41;5.03;;;1.77;;
8199;SDS011;4141;47.880;12.340;2022-07-06T14:31:09;3.83;;;1.60;;
8199;SDS011;4141;47.880;12.340;2022-07-06T14:33:44;1.80;;;1.17;;
8199;SDS011;4141;47.880;12.340;2022-07-06T14:36:14;3.93;;;1.53;;
8199;SDS011;4141;47.880;12.340;2022-07-06T14:38:42;2.10;;;1.13;;
8199;SDS011;4141;47.880;12.340;2022-07-06T14:41:10;1.90;;;1.37;;
8199;SDS011;4141;47.880;12.340;2022-07-06T14:43:38;3.43;;;1.63;;
8199;SDS011;4141;47.880;12.340;2022-07-06T14:46:06;2.20;;;1.37;;
8199;SDS011;4141;47.880;12.340;2022-07-06T14:48:35;2.00;;;1.70;;
8199;SDS011;4141;47.880;12.340;2022-07-06T14:51:03;1.93;;;1.50;;
8199;SDS011;4141;47.880;12.340;2022-07-06T14:53:32;3.57;;;1.33;;
8199;SDS011;4141;47.880;12.340;2022-07-06T14:56:01;5.00;;;1.47;;
8199;SDS011;4141;47.880;12.340;2022-07-06T14:58:30;8.23;;;1.40;;
8199;SDS011;4141;47.880;12.340;2022-07-06T15:00:58;4.80;;;1.63;;
8199;SDS011;4141;47.880;12.340;2022-07-06T15:03:26;2.70;;;1.63;;
8199;SDS011;4141;47.880;12.340;2022-07-06T15:05:55;2.53;;;1.50;;
8199;SDS011;4141;47.880;12.340;2022-07-06T15:08:23;1.93;;;1.20;;
8199;SDS011;4141;47.880;12.340;2022-07-06T15:10:53;3.07;;;1.40;;
8199;SDS011;4141;47.880;12.340;2022-07-06T15:13:21;4.43;;;1.97;;
8199;SDS011;4141;47.880;12.340;2022-07-06T15:15:49;3.03;;;1.60;;
8199;SDS011;4141;47.880;12.340;2022-07-06T15:18:23;5.37;;;1.43;;
8199;SDS011;4141;47.880;12.340;2022-07-06T15:20:51;1.70;;;1.13;;